LGTSLGLM

Guest
Details From LGTS - Thessalonik Makedonia
To LGLM - Limnos
Flight Number -
Tags generated
Created
Modified
Stats Distance 112 nm / 207 km
Max Altitude 8,200 ft / 2,499 m
Waypoints 3
Social Downloads 0
Likes 0
Share VATSIM

Download

Looking for another format? Having issues loading an existing format? Contact us
Advertisement - Login to hide

Notes

Basic altitude profile: - Ascent Rate: 2500ft/min - Ascent Speed: 250kts - Cruise Altitude: 25000ft - Cruise Speed: 420kts - Descent Rate: 1500ft/min - Descent Speed: 250kts Options: - Use NATs: yes - Use PACOTS: yes - Use low airways: yes - Use high airways: yes

Route

LGTS ARNAS LGLM

ID Type Via Altitude Latitude Longitude Leg Dist Tot Dist Heading (true) Name
O LGTS APT - 0 ft / 0 m 40.51952˚ 22.97202˚ - 0 nm - Thessalonik Makedonia
ARNAS FIX - 8,200 ft / 2,499 m 40.52806˚ 23.48056˚ 23 nm 23 nm 89° / 89° -
O LGLM APT - 0 ft / 0 m 39.91703˚ 25.23635˚ 88 nm 111 nm 114° / 115° Limnos

Altitude Profile

Advertisement - Login to hide

LGTS

Details ICAO LGTS (SKG)
Name Thessalonik Makedonia
Region Greece
Timezone Europe/Athens (UTC+2.0)
Stats Elevation 22 ft / 7 m (AMSL)
Location 40.519522° 22.972017°
Runways 2
Magnetic Variation 4.623° E

METAR

LGTS 151520Z 12006KT 9999 FEW030 15/04 Q1011 NOSIG

Decode

TAF

TAF LGTS 151100Z 1512/1612 VRB03KT 9999 FEW030 BECMG 1514/1516 14010KT SCT030 TEMPO 1603/1612 14015G25KT

Decode

Departure Runways

ID Width Length Bearing (true) Bearing (mag) Surface Threshold Offset Overrun Length
10 164 ft / 50 m 7,990 ft / 2,435 m 103.95° 99.33° Asphalt 0 ft / 0 m 150 ft / 46 m
16 197 ft / 60 m 7,927 ft / 2,416 m 166.35° 161.73° Asphalt 0 ft / 0 m 200 ft / 61 m
28 164 ft / 50 m 7,990 ft / 2,435 m 283.97° 279.35° Asphalt 0 ft / 0 m 150 ft / 46 m
34 197 ft / 60 m 7,927 ft / 2,416 m 346.36° 341.74° Asphalt 0 ft / 0 m 200 ft / 61 m

LGLM

Details ICAO LGLM (LXS)
Name Limnos
Region Greece
Timezone Europe/Athens (UTC+2.0)
Stats Elevation 14 ft / 4 m (AMSL)
Location 39.917028° 25.236348°
Runways 1
Magnetic Variation 4.857° E

METAR

LGLM 151520Z 19009KT CAVOK 15/10 Q1013

Decode

TAF

Not found

Destination Runways

ID Width Length Bearing (true) Bearing (mag) Surface Threshold Offset Overrun Length
04R 148 ft / 45 m 9,842 ft / 3,000 m 43.04° 38.18° Asphalt 0 ft / 0 m 920 ft / 280 m
22L 148 ft / 45 m 9,842 ft / 3,000 m 223.05° 218.19° Asphalt 0 ft / 0 m 920 ft / 280 m

Popular Alternatives